sensor_id;sensor_type;location;lat;lon;timestamp;temperature;humidity
1025;DHT22;501;48.214;11.350;2023-10-08T00:00:45;16.50;25.80
1025;DHT22;501;48.214;11.350;2023-10-08T00:03:13;16.50;24.70
1025;DHT22;501;48.214;11.350;2023-10-08T00:05:39;16.50;24.70
1025;DHT22;501;48.214;11.350;2023-10-08T00:08:08;16.50;24.80
1025;DHT22;501;48.214;11.350;2023-10-08T00:10:38;16.60;24.40
1025;DHT22;501;48.214;11.350;2023-10-08T00:13:07;16.70;24.40
1025;DHT22;501;48.214;11.350;2023-10-08T00:15:44;16.70;24.10
1025;DHT22;501;48.214;11.350;2023-10-08T00:18:22;16.70;24.10
1025;DHT22;501;48.214;11.350;2023-10-08T00:20:51;16.80;24.10
1025;DHT22;501;48.214;11.350;2023-10-08T00:23:23;16.80;23.90
1025;DHT22;501;48.214;11.350;2023-10-08T00:25:54;16.90;23.60
1025;DHT22;501;48.214;11.350;2023-10-08T00:28:21;16.90;23.80
1025;DHT22;501;48.214;11.350;2023-10-08T00:30:47;17.00;23.60
1025;DHT22;501;48.214;11.350;2023-10-08T00:33:13;17.00;23.30
1025;DHT22;501;48.214;11.350;2023-10-08T00:35:41;17.00;23.60
1025;DHT22;501;48.214;11.350;2023-10-08T00:38:10;17.10;23.20
1025;DHT22;501;48.214;11.350;2023-10-08T00:40:46;17.10;23.30
1025;DHT22;501;48.214;11.350;2023-10-08T00:43:31;17.10;23.10
1025;DHT22;501;48.214;11.350;2023-10-08T00:46:04;17.10;22.60
1025;DHT22;501;48.214;11.350;2023-10-08T00:48:30;17.20;22.40
1025;DHT22;501;48.214;11.350;2023-10-08T00:51:02;17.20;22.00
1025;DHT22;501;48.214;11.350;2023-10-08T00:53:55;17.20;21.90
1025;DHT22;501;48.214;11.350;2023-10-08T00:56:29;17.30;22.10
1025;DHT22;501;48.214;11.350;2023-10-08T00:59:21;17.40;21.40
1025;DHT22;501;48.214;11.350;2023-10-08T01:01:48;17.40;21.60
1025;DHT22;501;48.214;11.350;2023-10-08T01:04:21;17.50;21.50
1025;DHT22;501;48.214;11.350;2023-10-08T01:06:57;17.50;21.50
1025;DHT22;501;48.214;11.350;2023-10-08T01:09:38;17.50;21.50
1025;DHT22;501;48.214;11.350;2023-10-08T01:12:18;17.50;21.50
1025;DHT22;501;48.214;11.350;2023-10-08T01:14:55;17.50;21.50
1025;DHT22;501;48.214;11.350;2023-10-08T01:17:32;17.50;21.50
1025;DHT22;501;48.214;11.350;2023-10-08T01:20:08;17.50;22.00
1025;DHT22;501;48.214;11.350;2023-10-08T01:23:08;17.50;21.50
1025;DHT22;501;48.214;11.350;2023-10-08T01:25:39;17.50;21.50
1025;DHT22;501;48.214;11.350;2023-10-08T01:28:06;17.50;21.50
1025;DHT22;501;48.214;11.350;2023-10-08T01:30:44;17.50;21.50
1025;DHT22;501;48.214;11.350;2023-10-08T01:33:16;17.60;21.50
1025;DHT22;501;48.214;11.350;2023-10-08T01:35:46;17.60;21.50
1025;DHT22;501;48.214;11.350;2023-10-08T01:38:14;17.60;21.30
1025;DHT22;501;48.214;11.350;2023-10-08T01:40:43;17.60;21.00
1025;DHT22;501;48.214;11.350;2023-10-08T01:43:15;17.60;20.20
1025;DHT22;501;48.214;11.350;2023-10-08T01:45:41;17.70;20.20
1025;DHT22;501;48.214;11.350;2023-10-08T01:48:08;17.70;20.90
1025;DHT22;501;48.214;11.350;2023-10-08T01:50:37;17.70;20.70
1025;DHT22;501;48.214;11.350;2023-10-08T01:53:04;17.80;20.10
1025;DHT22;501;48.214;11.350;2023-10-08T01:55:35;17.70;20.50
1025;DHT22;501;48.214;11.350;2023-10-08T01:58:14;17.70;20.60
1025;DHT22;501;48.214;11.350;2023-10-08T02:00:48;17.70;21.10
1025;DHT22;501;48.214;11.350;2023-10-08T02:03:15;17.70;20.40
1025;DHT22;501;48.214;11.350;2023-10-08T02:05:45;17.70;21.60
1025;DHT22;501;48.214;11.350;2023-10-08T02:08:12;17.70;19.90
1025;DHT22;501;48.214;11.350;2023-10-08T02:10:40;17.70;21.10
1025;DHT22;501;48.214;11.350;2023-10-08T02:13:07;17.70;21.30
1025;DHT22;501;48.214;11.350;2023-10-08T02:15:34;17.70;21.30
1025;DHT22;501;48.214;11.350;2023-10-08T02:18:02;17.70;21.60
1025;DHT22;501;48.214;11.350;2023-10-08T02:20:28;17.70;21.60
1025;DHT22;501;48.214;11.350;2023-10-08T02:22:54;17.60;20.90
1025;DHT22;501;48.214;11.350;2023-10-08T02:25:20;17.60;20.60
1025;DHT22;501;48.214;11.350;2023-10-08T02:27:45;17.60;21.60
1025;DHT22;501;48.214;11.350;2023-10-08T02:30:12;17.60;21.50
1025;DHT22;501;48.214;11.350;2023-10-08T02:32:38;17.60;21.50
1025;DHT22;501;48.214;11.350;2023-10-08T02:35:11;17.60;21.20
1025;DHT22;501;48.214;11.350;2023-10-08T02:37:38;17.60;21.20
1025;DHT22;501;48.214;11.350;2023-10-08T02:40:08;17.60;21.10
1025;DHT22;501;48.214;11.350;2023-10-08T02:42:54;17.60;21.00
1025;DHT22;501;48.214;11.350;2023-10-08T02:45:29;17.60;21.20
1025;DHT22;501;48.214;11.350;2023-10-08T02:47:56;17.60;21.40
1025;DHT22;501;48.214;11.350;2023-10-08T02:50:22;17.60;20.40
1025;DHT22;501;48.214;11.350;2023-10-08T02:52:51;17.60;20.60
1025;DHT22;501;48.214;11.350;2023-10-08T02:55:20;17.60;20.50
1025;DHT22;501;48.214;11.350;2023-10-08T02:58:02;17.60;20.70
1025;DHT22;501;48.214;11.350;2023-10-08T03:00:29;17.60;21.20
1025;DHT22;501;48.214;11.350;2023-10-08T03:02:56;17.60;20.20
1025;DHT22;501;48.214;11.350;2023-10-08T03:05:22;17.50;20.90
1025;DHT22;501;48.214;11.350;2023-10-08T03:07:48;17.50;21.00
1025;DHT22;501;48.214;11.350;2023-10-08T03:10:17;17.50;20.70
1025;DHT22;501;48.214;11.350;2023-10-08T03:12:46;17.50;21.10
1025;DHT22;501;48.214;11.350;2023-10-08T03:15:13;17.50;20.90
1025;DHT22;501;48.214;11.350;2023-10-08T03:17:42;17.50;20.90
1025;DHT22;501;48.214;11.350;2023-10-08T03:20:18;17.40;20.90
1025;DHT22;501;48.214;11.350;2023-10-08T03:23:02;17.40;21.40
1025;DHT22;501;48.214;11.350;2023-10-08T03:25:31;17.40;20.40
1025;DHT22;501;48.214;11.350;2023-10-08T03:28:09;17.40;20.50
1025;DHT22;501;48.214;11.350;2023-10-08T03:30:38;17.40;20.60
1025;DHT22;501;48.214;11.350;2023-10-08T03:33:16;17.40;19.90
1025;DHT22;501;48.214;11.350;2023-10-08T03:35:49;17.40;18.90
1025;DHT22;501;48.214;11.350;2023-10-08T03:38:21;17.50;19.80
1025;DHT22;501;48.214;11.350;2023-10-08T03:41:10;17.50;19.70
1025;DHT22;501;48.214;11.350;2023-10-08T03:43:45;17.50;18.60
1025;DHT22;501;48.214;11.350;2023-10-08T03:46:28;17.50;19.40
1025;DHT22;501;48.214;11.350;2023-10-08T03:48:54;17.50;19.30
1025;DHT22;501;48.214;11.350;2023-10-08T03:51:23;17.50;19.10
1025;DHT22;501;48.214;11.350;2023-10-08T03:53:55;17.60;19.00
1025;DHT22;501;48.214;11.350;2023-10-08T03:56:36;17.60;19.50
1025;DHT22;501;48.214;11.350;2023-10-08T03:59:17;17.60;18.60
1025;DHT22;501;48.214;11.350;2023-10-08T04:01:47;17.60;18.30
1025;DHT22;501;48.214;11.350;2023-10-08T04:04:23;17.60;18.40
1025;DHT22;501;48.214;11.350;2023-10-08T04:06:56;17.60;18.50
1025;DHT22;501;48.214;11.350;2023-10-08T04:09:42;17.60;18.30
1025;DHT22;501;48.214;11.350;2023-10-08T04:12:07;17.70;18.40
1025;DHT22;501;48.214;11.350;2023-10-08T04:14:36;17.70;18.00
1025;DHT22;501;48.214;11.350;2023-10-08T04:17:02;17.70;17.90
1025;DHT22;501;48.214;11.350;2023-10-08T04:19:29;17.70;17.80
1025;DHT22;501;48.214;11.350;2023-10-08T04:21:56;17.70;17.80
1025;DHT22;501;48.214;11.350;2023-10-08T04:24:26;17.70;17.80
1025;DHT22;501;48.214;11.350;2023-10-08T04:27:00;17.80;17.80
1025;DHT22;501;48.214;11.350;2023-10-08T04:29:31;17.80;18.00
1025;DHT22;501;48.214;11.350;2023-10-08T04:32:02;17.70;17.80
1025;DHT22;501;48.214;11.350;2023-10-08T04:34:33;17.70;18.30
1025;DHT22;501;48.214;11.350;2023-10-08T04:36:59;17.70;18.70
1025;DHT22;501;48.214;11.350;2023-10-08T04:39:40;17.70;18.60
1025;DHT22;501;48.214;11.350;2023-10-08T04:42:14;17.70;18.30
1025;DHT22;501;48.214;11.350;2023-10-08T04:44:40;17.60;18.30
1025;DHT22;501;48.214;11.350;2023-10-08T04:47:09;17.60;19.00
1025;DHT22;501;48.214;11.350;2023-10-08T04:49:35;17.60;19.20
1025;DHT22;501;48.214;11.350;2023-10-08T04:52:08;17.60;19.40
1025;DHT22;501;48.214;11.350;2023-10-08T04:54:39;17.50;20.20
1025;DHT22;501;48.214;11.350;2023-10-08T04:57:07;17.50;20.30
1025;DHT22;501;48.214;11.350;2023-10-08T04:59:38;17.40;20.00
1025;DHT22;501;48.214;11.350;2023-10-08T05:02:05;17.40;20.30
1025;DHT22;501;48.214;11.350;2023-10-08T05:04:52;17.30;20.20
1025;DHT22;501;48.214;11.350;2023-10-08T05:07:18;17.30;20.20
1025;DHT22;501;48.214;11.350;2023-10-08T05:10:06;17.20;21.30
1025;DHT22;501;48.214;11.350;2023-10-08T05:12:31;17.20;21.30
1025;DHT22;501;48.214;11.350;2023-10-08T05:15:04;17.20;21.30
1025;DHT22;501;48.214;11.350;2023-10-08T05:17:43;17.10;20.50
1025;DHT22;501;48.214;11.350;2023-10-08T05:20:16;17.10;20.60
1025;DHT22;501;48.214;11.350;2023-10-08T05:22:56;17.10;20.90
1025;DHT22;501;48.214;11.350;2023-10-08T05:25:31;17.00;21.10
1025;DHT22;501;48.214;11.350;2023-10-08T05:28:19;17.00;20.70
1025;DHT22;501;48.214;11.350;2023-10-08T05:30:50;17.00;21.10
1025;DHT22;501;48.214;11.350;2023-10-08T05:33:20;17.00;20.80
1025;DHT22;501;48.214;11.350;2023-10-08T05:36:09;17.00;20.80
1025;DHT22;501;48.214;11.350;2023-10-08T05:38:43;17.00;21.10
1025;DHT22;501;48.214;11.350;2023-10-08T05:41:24;17.00;21.10
1025;DHT22;501;48.214;11.350;2023-10-08T05:44:17;17.00;21.10
1025;DHT22;501;48.214;11.350;2023-10-08T05:46:46;17.00;21.10
1025;DHT22;501;48.214;11.350;2023-10-08T05:49:32;17.00;21.10
1025;DHT22;501;48.214;11.350;2023-10-08T05:51:58;17.00;21.10
1025;DHT22;501;48.214;11.350;2023-10-08T05:54:29;17.00;21.20
1025;DHT22;501;48.214;11.350;2023-10-08T05:59:41;17.10;21.30
1025;DHT22;501;48.214;11.350;2023-10-08T06:02:27;17.10;21.40
1025;DHT22;501;48.214;11.350;2023-10-08T06:04:53;17.10;21.30
1025;DHT22;501;48.214;11.350;2023-10-08T06:07:40;17.10;21.70
1025;DHT22;501;48.214;11.350;2023-10-08T06:10:31;17.20;21.90
1025;DHT22;501;48.214;11.350;2023-10-08T06:15:40;17.20;22.40
1025;DHT22;501;48.214;11.350;2023-10-08T06:18:32;17.20;22.70
1025;DHT22;501;48.214;11.350;2023-10-08T06:20:59;17.20;22.00
1025;DHT22;501;48.214;11.350;2023-10-08T06:23:29;17.20;23.00
1025;DHT22;501;48.214;11.350;2023-10-08T06:25:58;17.20;23.20
1025;DHT22;501;48.214;11.350;2023-10-08T06:28:32;17.20;23.50
1025;DHT22;501;48.214;11.350;2023-10-08T06:31:01;17.20;22.60
1025;DHT22;501;48.214;11.350;2023-10-08T06:33:28;17.20;22.70
1025;DHT22;501;48.214;11.350;2023-10-08T06:35:59;17.30;23.50
1025;DHT22;501;48.214;11.350;2023-10-08T06:38:29;17.30;24.40
1025;DHT22;501;48.214;11.350;2023-10-08T06:40:58;17.30;24.90
1025;DHT22;501;48.214;11.350;2023-10-08T06:43:48;17.20;25.60
1025;DHT22;501;48.214;11.350;2023-10-08T06:46:39;17.20;25.00
1025;DHT22;501;48.214;11.350;2023-10-08T06:49:07;17.30;25.40
1025;DHT22;501;48.214;11.350;2023-10-08T06:51:43;17.20;24.30
1025;DHT22;501;48.214;11.350;2023-10-08T06:54:09;17.20;24.50
1025;DHT22;501;48.214;11.350;2023-10-08T06:56:42;17.20;24.40
1025;DHT22;501;48.214;11.350;2023-10-08T06:59:13;17.20;24.80
1025;DHT22;501;48.214;11.350;2023-10-08T07:01:39;17.20;25.60
1025;DHT22;501;48.214;11.350;2023-10-08T07:04:05;17.20;25.40
1025;DHT22;501;48.214;11.350;2023-10-08T07:06:32;17.20;26.20
1025;DHT22;501;48.214;11.350;2023-10-08T07:09:00;17.20;25.00
1025;DHT22;501;48.214;11.350;2023-10-08T07:11:31;17.20;24.90
1025;DHT22;501;48.214;11.350;2023-10-08T07:14:01;17.30;25.10
1025;DHT22;501;48.214;11.350;2023-10-08T07:16:27;17.30;25.10
1025;DHT22;501;48.214;11.350;2023-10-08T07:18:53;17.40;24.70
1025;DHT22;501;48.214;11.350;2023-10-08T07:21:26;17.50;25.20
1025;DHT22;501;48.214;11.350;2023-10-08T07:23:56;17.60;25.30
1025;DHT22;501;48.214;11.350;2023-10-08T07:26:26;17.70;25.30
1025;DHT22;501;48.214;11.350;2023-10-08T07:29:01;17.80;24.80
1025;DHT22;501;48.214;11.350;2023-10-08T07:31:30;17.90;24.80
1025;DHT22;501;48.214;11.350;2023-10-08T07:33:59;17.90;25.30
1025;DHT22;501;48.214;11.350;2023-10-08T07:36:42;18.00;25.80
1025;DHT22;501;48.214;11.350;2023-10-08T07:39:09;18.10;24.40
1025;DHT22;501;48.214;11.350;2023-10-08T07:41:48;18.20;26.00
1025;DHT22;501;48.214;11.350;2023-10-08T07:44:15;18.20;25.50
1025;DHT22;501;48.214;11.350;2023-10-08T07:46:40;18.30;25.80
1025;DHT22;501;48.214;11.350;2023-10-08T07:49:06;18.40;25.30
1025;DHT22;501;48.214;11.350;2023-10-08T07:51:32;18.50;24.50
1025;DHT22;501;48.214;11.350;2023-10-08T07:53:57;18.50;24.70
1025;DHT22;501;48.214;11.350;2023-10-08T07:56:24;18.60;25.00
1025;DHT22;501;48.214;11.350;2023-10-08T07:58:53;18.70;25.20
1025;DHT22;501;48.214;11.350;2023-10-08T08:01:23;18.70;25.10
1025;DHT22;501;48.214;11.350;2023-10-08T08:03:50;18.70;24.90
1025;DHT22;501;48.214;11.350;2023-10-08T08:06:16;18.80;24.70
1025;DHT22;501;48.214;11.350;2023-10-08T08:08:42;18.80;25.00
1025;DHT22;501;48.214;11.350;2023-10-08T08:11:10;18.90;26.20
1025;DHT22;501;48.214;11.350;2023-10-08T08:13:42;18.90;25.40
1025;DHT22;501;48.214;11.350;2023-10-08T08:16:12;19.00;25.70
1025;DHT22;501;48.214;11.350;2023-10-08T08:18:48;19.10;25.30
1025;DHT22;501;48.214;11.350;2023-10-08T08:21:15;19.10;25.10
1025;DHT22;501;48.214;11.350;2023-10-08T08:23:42;19.20;26.40
1025;DHT22;501;48.214;11.350;2023-10-08T08:26:16;19.20;25.40
1025;DHT22;501;48.214;11.350;2023-10-08T08:28:58;19.30;26.50
1025;DHT22;501;48.214;11.350;2023-10-08T08:31:25;19.20;25.50
1025;DHT22;501;48.214;11.350;2023-10-08T08:33:52;19.30;24.60
1025;DHT22;501;48.214;11.350;2023-10-08T08:36:19;19.30;24.00
1025;DHT22;501;48.214;11.350;2023-10-08T08:38:46;19.30;24.70
1025;DHT22;501;48.214;11.350;2023-10-08T08:41:13;19.30;24.20
1025;DHT22;501;48.214;11.350;2023-10-08T08:43:44;19.30;23.90
1025;DHT22;501;48.214;11.350;2023-10-08T08:46:10;19.30;24.20
1025;DHT22;501;48.214;11.350;2023-10-08T08:48:40;19.30;24.00
1025;DHT22;501;48.214;11.350;2023-10-08T08:51:07;19.30;25.20
1025;DHT22;501;48.214;11.350;2023-10-08T08:53:37;19.30;24.90
1025;DHT22;501;48.214;11.350;2023-10-08T08:56:03;19.30;25.20
1025;DHT22;501;48.214;11.350;2023-10-08T08:58:33;19.30;25.40
1025;DHT22;501;48.214;11.350;2023-10-08T09:00:59;19.30;25.50
1025;DHT22;501;48.214;11.350;2023-10-08T09:03:25;19.40;25.90
1025;DHT22;501;48.214;11.350;2023-10-08T09:05:58;19.40;25.70
1025;DHT22;501;48.214;11.350;2023-10-08T09:08:36;19.40;26.30
1025;DHT22;501;48.214;11.350;2023-10-08T09:11:03;19.50;25.50
1025;DHT22;501;48.214;11.350;2023-10-08T09:13:34;19.50;25.20
1025;DHT22;501;48.214;11.350;2023-10-08T09:16:20;19.50;25.20
1025;DHT22;501;48.214;11.350;2023-10-08T09:18:47;19.50;25.50
1025;DHT22;501;48.214;11.350;2023-10-08T09:21:18;19.50;25.20
1025;DHT22;501;48.214;11.350;2023-10-08T09:23:49;19.50;25.60
1025;DHT22;501;48.214;11.350;2023-10-08T09:26:17;19.50;25.20
1025;DHT22;501;48.214;11.350;2023-10-08T09:28:47;19.50;25.50
1025;DHT22;501;48.214;11.350;2023-10-08T09:31:17;19.50;24.50
1025;DHT22;501;48.214;11.350;2023-10-08T09:33:54;19.60;24.70
1025;DHT22;501;48.214;11.350;2023-10-08T09:36:20;19.60;24.80
1025;DHT22;501;48.214;11.350;2023-10-08T09:38:50;19.70;24.60
1025;DHT22;501;48.214;11.350;2023-10-08T09:41:18;19.70;24.70
1025;DHT22;501;48.214;11.350;2023-10-08T09:43:46;19.80;25.50
1025;DHT22;501;48.214;11.350;2023-10-08T09:48:41;19.90;24.50
1025;DHT22;501;48.214;11.350;2023-10-08T09:51:10;20.00;24.50
1025;DHT22;501;48.214;11.350;2023-10-08T09:53:59;20.10;24.90
1025;DHT22;501;48.214;11.350;2023-10-08T09:56:28;20.10;24.30
1025;DHT22;501;48.214;11.350;2023-10-08T09:58:55;20.20;24.50
1025;DHT22;501;48.214;11.350;2023-10-08T10:01:21;20.20;25.00
1025;DHT22;501;48.214;11.350;2023-10-08T10:03:48;20.30;24.70
1025;DHT22;501;48.214;11.350;2023-10-08T10:06:15;20.30;26.00
1025;DHT22;501;48.214;11.350;2023-10-08T10:08:44;20.40;25.20
1025;DHT22;501;48.214;11.350;2023-10-08T10:11:10;20.40;25.00
1025;DHT22;501;48.214;11.350;2023-10-08T10:13:42;20.40;25.30
1025;DHT22;501;48.214;11.350;2023-10-08T10:16:10;20.40;25.30
1025;DHT22;501;48.214;11.350;2023-10-08T10:18:38;20.50;25.90
1025;DHT22;501;48.214;11.350;2023-10-08T10:23:39;20.60;25.10
1025;DHT22;501;48.214;11.350;2023-10-08T10:26:25;20.60;25.10
1025;DHT22;501;48.214;11.350;2023-10-08T10:31:53;20.60;25.20
1025;DHT22;501;48.214;11.350;2023-10-08T10:34:25;20.60;25.50
1025;DHT22;501;48.214;11.350;2023-10-08T10:36:56;20.60;25.60
1025;DHT22;501;48.214;11.350;2023-10-08T10:39:25;20.60;25.70
1025;DHT22;501;48.214;11.350;2023-10-08T10:41:57;20.60;26.40
1025;DHT22;501;48.214;11.350;2023-10-08T10:44:24;20.50;26.50
1025;DHT22;501;48.214;11.350;2023-10-08T10:46:50;20.50;26.30
1025;DHT22;501;48.214;11.350;2023-10-08T10:49:19;20.50;26.30
1025;DHT22;501;48.214;11.350;2023-10-08T10:51:56;20.50;26.20
1025;DHT22;501;48.214;11.350;2023-10-08T10:54:23;20.50;26.60
1025;DHT22;501;48.214;11.350;2023-10-08T10:56:50;20.40;26.50
1025;DHT22;501;48.214;11.350;2023-10-08T10:59:34;20.40;26.50
1025;DHT22;501;48.214;11.350;2023-10-08T11:02:04;20.50;26.80
1025;DHT22;501;48.214;11.350;2023-10-08T11:04:34;20.50;26.70
1025;DHT22;501;48.214;11.350;2023-10-08T11:07:18;20.50;26.70
1025;DHT22;501;48.214;11.350;2023-10-08T11:09:46;20.50;26.80
1025;DHT22;501;48.214;11.350;2023-10-08T11:12:13;20.50;26.80
1025;DHT22;501;48.214;11.350;2023-10-08T11:14:46;20.50;27.30
1025;DHT22;501;48.214;11.350;2023-10-08T11:17:13;20.50;26.80
1025;DHT22;501;48.214;11.350;2023-10-08T11:19:43;20.50;27.30
1025;DHT22;501;48.214;11.350;2023-10-08T11:22:12;20.40;26.60
1025;DHT22;501;48.214;11.350;2023-10-08T11:24:42;20.40;26.20
1025;DHT22;501;48.214;11.350;2023-10-08T11:27:10;20.40;26.10
1025;DHT22;501;48.214;11.350;2023-10-08T11:29:45;20.40;26.60
1025;DHT22;501;48.214;11.350;2023-10-08T11:32:12;20.30;26.80
1025;DHT22;501;48.214;11.350;2023-10-08T11:34:38;20.30;27.10
1025;DHT22;501;48.214;11.350;2023-10-08T11:37:05;20.20;27.20
1025;DHT22;501;48.214;11.350;2023-10-08T11:39:48;20.20;27.50
1025;DHT22;501;48.214;11.350;2023-10-08T11:42:14;20.20;28.00
1025;DHT22;501;48.214;11.350;2023-10-08T11:45:10;20.20;27.50
1025;DHT22;501;48.214;11.350;2023-10-08T11:47:50;20.20;27.50
1025;DHT22;501;48.214;11.350;2023-10-08T11:50:23;20.20;27.40
1025;DHT22;501;48.214;11.350;2023-10-08T11:52:59;20.20;28.10
1025;DHT22;501;48.214;11.350;2023-10-08T11:55:33;20.20;28.20
1025;DHT22;501;48.214;11.350;2023-10-08T11:58:05;20.20;27.60
1025;DHT22;501;48.214;11.350;2023-10-08T12:00:40;20.10;28.50
1025;DHT22;501;48.214;11.350;2023-10-08T12:03:17;20.20;28.90
1025;DHT22;501;48.214;11.350;2023-10-08T12:05:47;20.20;28.30
1025;DHT22;501;48.214;11.350;2023-10-08T12:08:16;20.20;28.90
1025;DHT22;501;48.214;11.350;2023-10-08T12:10:45;20.20;28.40
1025;DHT22;501;48.214;11.350;2023-10-08T12:13:14;20.30;28.20
1025;DHT22;501;48.214;11.350;2023-10-08T12:15:44;20.30;28.40
1025;DHT22;501;48.214;11.350;2023-10-08T12:18:10;20.30;28.10
1025;DHT22;501;48.214;11.350;2023-10-08T12:20:50;20.30;27.80
1025;DHT22;501;48.214;11.350;2023-10-08T12:23:16;20.40;28.50
1025;DHT22;501;48.214;11.350;2023-10-08T12:25:55;20.30;28.00
1025;DHT22;501;48.214;11.350;2023-10-08T12:28:25;20.40;28.10
1025;DHT22;501;48.214;11.350;2023-10-08T12:30:54;20.30;27.70
1025;DHT22;501;48.214;11.350;2023-10-08T12:33:23;20.30;28.60
1025;DHT22;501;48.214;11.350;2023-10-08T12:35:54;20.30;28.50
1025;DHT22;501;48.214;11.350;2023-10-08T12:38:24;20.30;28.80
1025;DHT22;501;48.214;11.350;2023-10-08T12:40:53;20.30;28.80
1025;DHT22;501;48.214;11.350;2023-10-08T12:43:23;20.30;28.50
1025;DHT22;501;48.214;11.350;2023-10-08T12:45:53;20.30;28.50
1025;DHT22;501;48.214;11.350;2023-10-08T12:48:23;20.40;28.90
1025;DHT22;501;48.214;11.350;2023-10-08T12:50:53;20.40;28.70
1025;DHT22;501;48.214;11.350;2023-10-08T12:53:22;20.50;28.60
1025;DHT22;501;48.214;11.350;2023-10-08T12:55:53;20.50;27.60
1025;DHT22;501;48.214;11.350;2023-10-08T12:58:20;20.60;28.50
1025;DHT22;501;48.214;11.350;2023-10-08T13:00:48;20.60;29.00
1025;DHT22;501;48.214;11.350;2023-10-08T13:03:22;20.60;28.70
1025;DHT22;501;48.214;11.350;2023-10-08T13:05:52;20.60;27.90
1025;DHT22;501;48.214;11.350;2023-10-08T13:08:21;20.60;27.90
1025;DHT22;501;48.214;11.350;2023-10-08T13:10:47;20.70;28.10
1025;DHT22;501;48.214;11.350;2023-10-08T13:13:13;20.80;27.20
1025;DHT22;501;48.214;11.350;2023-10-08T13:15:39;20.80;26.90
1025;DHT22;501;48.214;11.350;2023-10-08T13:18:07;20.90;26.90
1025;DHT22;501;48.214;11.350;2023-10-08T13:20:33;20.90;26.80
1025;DHT22;501;48.214;11.350;2023-10-08T13:23:03;20.90;27.40
1025;DHT22;501;48.214;11.350;2023-10-08T13:25:30;21.00;26.70
1025;DHT22;501;48.214;11.350;2023-10-08T13:27:59;21.00;26.40
1025;DHT22;501;48.214;11.350;2023-10-08T13:30:26;21.10;27.50
1025;DHT22;501;48.214;11.350;2023-10-08T13:32:52;21.20;26.90
1025;DHT22;501;48.214;11.350;2023-10-08T13:35:19;21.20;26.40
1025;DHT22;501;48.214;11.350;2023-10-08T13:37:45;21.20;26.50
1025;DHT22;501;48.214;11.350;2023-10-08T13:40:14;21.30;26.50
1025;DHT22;501;48.214;11.350;2023-10-08T13:42:42;21.30;26.60
1025;DHT22;501;48.214;11.350;2023-10-08T13:45:08;21.30;26.20
1025;DHT22;501;48.214;11.350;2023-10-08T13:47:35;21.40;26.40
1025;DHT22;501;48.214;11.350;2023-10-08T13:50:01;21.40;26.60
1025;DHT22;501;48.214;11.350;2023-10-08T13:52:35;21.40;26.90
1025;DHT22;501;48.214;11.350;2023-10-08T13:55:07;21.40;27.20
1025;DHT22;501;48.214;11.350;2023-10-08T13:57:41;21.50;28.30
1025;DHT22;501;48.214;11.350;2023-10-08T14:00:08;21.50;27.10
1025;DHT22;501;48.214;11.350;2023-10-08T14:02:41;21.50;27.10
1025;DHT22;501;48.214;11.350;2023-10-08T14:05:08;21.60;26.70
1025;DHT22;501;48.214;11.350;2023-10-08T14:07:35;21.60;26.80
1025;DHT22;501;48.214;11.350;2023-10-08T14:10:01;21.60;27.40
1025;DHT22;501;48.214;11.350;2023-10-08T14:12:34;21.60;27.60
1025;DHT22;501;48.214;11.350;2023-10-08T14:15:01;21.60;27.50
1025;DHT22;501;48.214;11.350;2023-10-08T14:17:32;21.60;28.00
1025;DHT22;501;48.214;11.350;2023-10-08T14:20:17;21.60;27.50
1025;DHT22;501;48.214;11.350;2023-10-08T14:22:48;21.60;29.50
1025;DHT22;501;48.214;11.350;2023-10-08T14:25:26;21.60;27.10
1025;DHT22;501;48.214;11.350;2023-10-08T14:27:54;21.60;28.60
1025;DHT22;501;48.214;11.350;2023-10-08T14:30:31;21.60;27.40
1025;DHT22;501;48.214;11.350;2023-10-08T14:32:56;21.50;27.80
1025;DHT22;501;48.214;11.350;2023-10-08T14:35:23;21.60;27.70
1025;DHT22;501;48.214;11.350;2023-10-08T14:38:08;21.50;28.00
1025;DHT22;501;48.214;11.350;2023-10-08T14:40:53;21.50;27.70
1025;DHT22;501;48.214;11.350;2023-10-08T14:43:37;21.40;28.60
1025;DHT22;501;48.214;11.350;2023-10-08T14:46:03;21.40;27.90
1025;DHT22;501;48.214;11.350;2023-10-08T14:48:32;21.30;28.10
1025;DHT22;501;48.214;11.350;2023-10-08T14:51:01;21.30;27.90
1025;DHT22;501;48.214;11.350;2023-10-08T14:53:28;21.20;27.90
1025;DHT22;501;48.214;11.350;2023-10-08T14:55:55;21.20;28.20
1025;DHT22;501;48.214;11.350;2023-10-08T14:58:21;21.20;28.20
1025;DHT22;501;48.214;11.350;2023-10-08T15:00:48;21.20;28.90
1025;DHT22;501;48.214;11.350;2023-10-08T15:03:14;21.10;28.70
1025;DHT22;501;48.214;11.350;2023-10-08T15:05:39;21.10;29.60
1025;DHT22;501;48.214;11.350;2023-10-08T15:08:08;21.00;29.80
1025;DHT22;501;48.214;11.350;2023-10-08T15:10:40;21.00;30.20
1025;DHT22;501;48.214;11.350;2023-10-08T15:13:06;21.00;30.00
1025;DHT22;501;48.214;11.350;2023-10-08T15:15:32;20.90;29.60
1025;DHT22;501;48.214;11.350;2023-10-08T15:18:00;20.90;30.20
1025;DHT22;501;48.214;11.350;2023-10-08T15:20:31;20.90;29.20
1025;DHT22;501;48.214;11.350;2023-10-08T15:23:00;20.90;29.70
1025;DHT22;501;48.214;11.350;2023-10-08T15:25:25;20.80;29.70
1025;DHT22;501;48.214;11.350;2023-10-08T15:27:51;20.80;29.60
1025;DHT22;501;48.214;11.350;2023-10-08T15:30:18;20.70;29.40
1025;DHT22;501;48.214;11.350;2023-10-08T15:32:48;20.70;30.40
1025;DHT22;501;48.214;11.350;2023-10-08T15:35:19;20.70;30.20
1025;DHT22;501;48.214;11.350;2023-10-08T15:37:50;20.60;30.00
1025;DHT22;501;48.214;11.350;2023-10-08T15:40:16;20.60;31.30
1025;DHT22;501;48.214;11.350;2023-10-08T15:42:53;20.60;31.40
1025;DHT22;501;48.214;11.350;2023-10-08T15:45:20;20.50;31.20
1025;DHT22;501;48.214;11.350;2023-10-08T15:47:46;20.50;31.30
1025;DHT22;501;48.214;11.350;2023-10-08T15:50:12;20.40;30.40
1025;DHT22;501;48.214;11.350;2023-10-08T15:52:38;20.40;31.20
1025;DHT22;501;48.214;11.350;2023-10-08T15:55:05;20.30;32.00
1025;DHT22;501;48.214;11.350;2023-10-08T15:57:31;20.30;32.10
1025;DHT22;501;48.214;11.350;2023-10-08T15:59:57;20.20;32.40
1025;DHT22;501;48.214;11.350;2023-10-08T16:02:22;20.20;32.80
1025;DHT22;501;48.214;11.350;2023-10-08T16:04:49;20.20;33.00
1025;DHT22;501;48.214;11.350;2023-10-08T16:07:16;20.10;32.80
1025;DHT22;501;48.214;11.350;2023-10-08T16:09:42;20.00;32.90
1025;DHT22;501;48.214;11.350;2023-10-08T16:12:09;20.00;33.40
1025;DHT22;501;48.214;11.350;2023-10-08T16:14:35;20.00;33.80
1025;DHT22;501;48.214;11.350;2023-10-08T16:17:00;19.90;33.40
1025;DHT22;501;48.214;11.350;2023-10-08T16:19:30;19.90;34.10
1025;DHT22;501;48.214;11.350;2023-10-08T16:21:57;19.80;34.10
1025;DHT22;501;48.214;11.350;2023-10-08T16:24:22;19.80;34.50
1025;DHT22;501;48.214;11.350;2023-10-08T16:26:51;19.70;35.20
1025;DHT22;501;48.214;11.350;2023-10-08T16:29:19;19.70;35.60
1025;DHT22;501;48.214;11.350;2023-10-08T16:31:45;19.60;36.00
1025;DHT22;501;48.214;11.350;2023-10-08T16:34:13;19.60;36.40
1025;DHT22;501;48.214;11.350;2023-10-08T16:36:41;19.50;36.50
1025;DHT22;501;48.214;11.350;2023-10-08T16:39:10;19.40;36.80